Terminal Aerodrome Forecast
Issued by NWS

Home | Current Version | Previous Version | Text Only | Print | Product List | Glossary Off
Versions: 1 2 3 4 5 6 7 8 9 10 11 12 13 14 15 16 17 18 19

000
FTUS43 KMPX 241506 AAB
TAFAXN
TAF AMD
KAXN 241506Z 2415/2512 14013G23KT 3SM BR OVC004
     FM241800 14015G25KT 6SM BR OVC006
     FM242000 14016G25KT P6SM OVC012
     FM242300 15016G24KT P6SM VCTS SCT015CB OVC025
      TEMPO 2423/2502 5SM SHRA BKN020
     FM250300 17010KT 4SM BR OVC025
     FM250900 22008KT P6SM FEW050=

USA.gov is the U.S. government's official web portal to all federal, state and local government web resources and services.